Terminal Aerodrome Forecast
Issued by NWS

Home | Current Version | Previous Version | Text Only | Print | Product List | Glossary On
Versions: 1 2 3 4 5 6 7 8 9 10 11 12 13 14 15 16 17 18 19 20 21 22 23 24 25 26 27 28
000
FTPA31 PHFO 041700
TAFKOA
TAF
PHKO 041729Z 0418/0518 11006KT P6SM BKN090
     FM042000 23010KT P6SM SCT060
     FM050200 18008KT P6SM BKN060
     FM050600 08007KT P6SM BKN060=

USA.gov is the U.S. government's official web portal to all federal, state and local government web resources and services.